Time;durP1;ratioP1;P1;durP2;ratioP2;P2;SDS_P1;SDS_P2;PMS_P1;PMS_P2;Temp;Humidity;BMP_temperature;BMP_pressure;BME280_temperature;BME280_humidity;BME280_pressure;Samples;Min_cycle;Max_cycle;Signal;HPM_P1;HPM_P2
2023/07/23 00:00:47;;;;;;;0.00;0.00;;;16.10;99.90;;;;;;5013510;28;20084;-87
2023/07/23 00:03:17;;;;;;;0.00;0.00;;;16.00;99.90;;;;;;5019503;28;20021;-88
2023/07/23 00:05:47;;;;;;;0.00;0.00;;;16.00;99.90;;;;;;5034200;28;20084;-88
2023/07/23 00:08:13;;;;;;;0.00;0.00;;;16.00;99.90;;;;;;5013574;28;20030;-86
2023/07/23 00:10:39;;;;;;;0.00;0.00;;;16.00;99.90;;;;;;5017129;28;20045;-89
2023/07/23 00:13:05;;;;;;;0.00;0.00;;;16.00;99.90;;;;;;5018489;28;20042;-87
2023/07/23 00:15:31;;;;;;;0.00;0.00;;;;;;;;;;5016972;28;20120;-88
2023/07/23 00:17:58;;;;;;;0.00;0.00;;;;;;;;;;5014067;28;20040;-88
2023/07/23 00:20:23;;;;;;;0.00;0.00;;;16.00;99.90;;;;;;5022016;28;20382;-88
2023/07/23 00:22:49;;;;;;;0.00;0.00;;;16.10;99.90;;;;;;5016775;28;20028;-88
2023/07/23 00:25:15;;;;;;;0.00;0.00;;;16.10;99.90;;;;;;5019146;28;20041;-87
2023/07/23 00:27:40;;;;;;;0.00;0.00;;;16.10;99.90;;;;;;5021930;28;20663;-88
2023/07/23 00:30:06;;;;;;;0.00;0.00;;;16.10;99.90;;;;;;5015964;28;20036;-89
2023/07/23 00:32:32;;;;;;;0.00;0.00;;;;;;;;;;5018954;28;20076;-89
2023/07/23 00:34:58;;;;;;;0.00;0.00;;;16.10;99.90;;;;;;5020567;28;20550;-87
2023/07/23 00:37:26;;;;;;;0.00;0.00;;;16.10;99.90;;;;;;5021074;28;20116;-87
2023/07/23 00:39:52;;;;;;;0.00;0.00;;;16.00;99.90;;;;;;5014991;28;20041;-88
2023/07/23 00:42:18;;;;;;;0.00;0.00;;;;;;;;;;5019435;28;20032;-87
2023/07/23 00:44:44;;;;;;;0.00;0.00;;;;;;;;;;5019022;28;20032;-88
2023/07/23 00:47:10;;;;;;;0.00;0.00;;;;;;;;;;5016733;28;20092;-87
2023/07/23 00:49:36;;;;;;;0.00;0.00;;;;;;;;;;5031286;28;20037;-87
2023/07/23 00:52:01;;;;;;;0.00;0.00;;;15.80;99.90;;;;;;5017335;28;20071;-87
2023/07/23 00:54:27;;;;;;;0.00;0.00;;;;;;;;;;5035863;28;20029;-87
2023/07/23 00:56:54;;;;;;;0.00;0.00;;;15.90;99.90;;;;;;5018496;28;20033;-87
2023/07/23 00:59:20;;;;;;;0.00;0.00;;;;;;;;;;5015854;28;20021;-88
2023/07/23 01:01:45;;;;;;;0.00;0.00;;;16.00;99.90;;;;;;5017986;28;20078;-87
2023/07/23 01:04:11;;;;;;;0.00;0.00;;;;;;;;;;5017278;28;20017;-87
2023/07/23 01:06:39;;;;;;;0.00;0.00;;;16.10;99.90;;;;;;5014006;28;20428;-88
2023/07/23 01:09:06;;;;;;;0.00;0.00;;;19.10;99.90;;;;;;5013728;28;20394;-86
2023/07/23 01:11:33;;;;;;;0.00;0.00;;;19.00;99.90;;;;;;5014791;28;20022;-88
2023/07/23 01:14:01;;;;;;;0.00;0.00;;;15.50;99.90;;;;;;5016222;28;20036;-87
2023/07/23 01:16:27;;;;;;;0.00;0.00;;;16.50;99.90;;;;;;5014163;28;20029;-87
2023/07/23 01:18:54;;;;;;;0.00;0.00;;;15.80;99.90;;;;;;5016932;28;20021;-88
2023/07/23 01:21:19;;;;;;;0.00;0.00;;;15.80;99.90;;;;;;5016685;28;20470;-87
2023/07/23 01:23:45;;;;;;;0.00;0.00;;;15.80;99.90;;;;;;5023530;28;20044;-87
2023/07/23 01:26:11;;;;;;;0.00;0.00;;;15.80;99.90;;;;;;5017733;28;20601;-87
2023/07/23 01:28:37;;;;;;;0.00;0.00;;;;;;;;;;5017264;28;20466;-88
2023/07/23 01:31:03;;;;;;;0.00;0.00;;;;;;;;;;5011679;28;20038;-87
2023/07/23 01:33:29;;;;;;;0.00;0.00;;;15.70;99.90;;;;;;5033933;28;20036;-88
2023/07/23 01:35:57;;;;;;;0.00;0.00;;;15.80;99.90;;;;;;5016500;28;20093;-88
2023/07/23 01:38:23;;;;;;;0.00;0.00;;;15.60;99.90;;;;;;5011241;28;20088;-87
2023/07/23 01:40:50;;;;;;;0.00;0.00;;;17.40;99.90;;;;;;5018890;28;20474;-87
2023/07/23 01:43:16;;;;;;;0.00;0.00;;;15.70;99.90;;;;;;5019837;28;20116;-88
2023/07/23 01:45:46;;;;;;;0.00;0.00;;;15.60;99.90;;;;;;5016118;28;20025;-87
2023/07/23 01:48:12;;;;;;;;;;;16.70;99.90;;;;;;5016747;28;20029;-88
2023/07/23 01:50:39;;;;;;;0.00;0.00;;;15.50;99.90;;;;;;5017752;28;20289;-88
2023/07/23 01:53:04;;;;;;;0.00;0.00;;;15.50;99.90;;;;;;5017248;28;20178;-87
2023/07/23 01:55:30;;;;;;;0.00;0.00;;;;;;;;;;5015707;28;20022;-88
2023/07/23 01:57:56;;;;;;;0.00;0.00;;;;;;;;;;5021703;28;20029;-87
2023/07/23 02:00:22;;;;;;;0.00;0.00;;;;;;;;;;5030248;28;20025;-85
2023/07/23 02:02:48;;;;;;;0.00;0.00;;;;;;;;;;5018904;28;20443;-88
2023/07/23 02:05:14;;;;;;;0.00;0.00;;;15.40;99.90;;;;;;5016152;28;20433;-87
2023/07/23 02:07:40;;;;;;;0.00;0.00;;;15.40;99.90;;;;;;5015515;28;20037;-86
2023/07/23 02:10:07;;;;;;;0.00;0.00;;;15.40;99.90;;;;;;5016123;28;20060;-86
2023/07/23 02:12:33;;;;;;;0.00;0.00;;;15.40;99.90;;;;;;5011504;28;20076;-86
2023/07/23 02:14:59;;;;;;;0.00;0.00;;;15.40;99.90;;;;;;5014571;28;20063;-87
2023/07/23 02:17:25;;;;;;;0.00;0.00;;;15.40;99.90;;;;;;5017218;28;20058;-86
2023/07/23 02:19:50;;;;;;;0.00;0.00;;;15.40;99.90;;;;;;5012255;28;20471;-86
2023/07/23 02:22:16;;;;;;;0.00;0.00;;;;;;;;;;5014444;28;20032;-86
2023/07/23 02:24:42;;;;;;;0.00;0.00;;;;;;;;;;5030741;28;20025;-85
2023/07/23 02:27:08;;;;;;;0.00;0.00;;;;;;;;;;5012114;28;20041;-87
2023/07/23 02:29:34;;;;;;;0.00;0.00;;;;;;;;;;5017590;28;20034;-84
2023/07/23 02:32:00;;;;;;;0.00;0.00;;;15.40;99.90;;;;;;5014509;28;20053;-85
2023/07/23 02:34:26;;;;;;;0.00;0.00;;;15.40;99.90;;;;;;5015126;28;20026;-85
2023/07/23 02:36:52;;;;;;;0.00;0.00;;;;;;;;;;5012533;28;20029;-86
2023/07/23 02:39:17;;;;;;;0.00;0.00;;;15.40;99.90;;;;;;5010444;28;20036;-86
2023/07/23 02:41:43;;;;;;;0.00;0.00;;;15.40;99.90;;;;;;5011681;28;20022;-86
2023/07/23 02:44:08;;;;;;;0.00;0.00;;;15.40;99.90;;;;;;5013809;28;20021;-85
2023/07/23 02:46:35;;;;;;;0.00;0.00;;;;;;;;;;5031869;28;20471;-86
2023/07/23 02:49:00;;;;;;;0.00;0.00;;;15.60;99.90;;;;;;5018788;28;20029;-86
2023/07/23 02:51:26;;;;;;;0.00;0.00;;;15.60;99.90;;;;;;5008990;28;20030;-87
2023/07/23 02:53:52;;;;;;;0.00;0.00;;;15.50;99.90;;;;;;5014719;28;20032;-86
2023/07/23 02:56:17;;;;;;;0.00;0.00;;;15.40;99.90;;;;;;5005927;28;20027;-87
2023/07/23 02:58:43;;;;;;;0.00;0.00;;;;;;;;;;5013701;28;20121;-87
2023/07/23 03:01:10;;;;;;;0.00;0.00;;;;;;;;;;5012229;28;20505;-88
2023/07/23 03:03:36;;;;;;;0.00;0.00;;;15.70;99.90;;;;;;5008686;28;20084;-87
2023/07/23 03:06:05;;;;;;;0.00;0.00;;;16.00;99.90;;;;;;5019264;28;20430;-86
2023/07/23 03:08:30;;;;;;;0.00;0.00;;;16.10;99.90;;;;;;5013565;28;20030;-86
2023/07/23 03:10:56;;;;;;;0.00;0.00;;;;;;;;;;5012696;28;20030;-86
2023/07/23 03:13:22;;;;;;;0.00;0.00;;;;;;;;;;5011206;28;20048;-86
2023/07/23 03:15:48;;;;;;;0.00;0.00;;;;;;;;;;5012348;28;20029;-88
2023/07/23 03:18:14;;;;;;;0.00;0.00;;;15.70;99.90;;;;;;5013582;28;20028;-86
2023/07/23 03:20:40;;;;;;;0.00;0.00;;;;;;;;;;5012182;28;20029;-86
2023/07/23 03:23:06;;;;;;;0.00;0.00;;;;;;;;;;5019108;28;20449;-87
2023/07/23 03:25:31;;;;;;;0.00;0.00;;;15.60;99.90;;;;;;5012514;28;20092;-87
2023/07/23 03:27:59;;;;;;;0.00;0.00;;;;;;;;;;5009503;28;20120;-87
2023/07/23 03:30:26;;;;;;;0.00;0.00;;;15.60;99.90;;;;;;5011973;28;20047;-87
2023/07/23 03:32:52;;;;;;;0.00;0.00;;;15.50;99.90;;;;;;5009833;28;20030;-86
2023/07/23 03:35:18;;;;;;;0.00;0.00;;;15.60;99.90;;;;;;5018146;28;20030;-87
2023/07/23 03:37:44;;;;;;;0.10;0.10;;;16.10;99.90;;;;;;5017064;28;20056;-87
2023/07/23 03:40:10;;;;;;;0.00;0.00;;;15.50;99.90;;;;;;5019174;28;20053;-87
2023/07/23 03:42:35;;;;;;;0.00;0.00;;;15.50;99.90;;;;;;5016640;28;20059;-86
2023/07/23 03:45:01;;;;;;;0.00;0.00;;;;;;;;;;5019417;28;20067;-86
2023/07/23 03:47:27;;;;;;;0.00;0.00;;;15.50;99.90;;;;;;5011078;28;20076;-86
2023/07/23 03:49:52;;;;;;;0.00;0.00;;;15.50;99.90;;;;;;5033895;28;20029;-86
2023/07/23 03:52:18;;;;;;;0.00;0.00;;;15.50;99.90;;;;;;5015662;28;20036;-87
2023/07/23 03:54:44;;;;;;;0.00;0.00;;;;;;;;;;5010777;28;20033;-87
2023/07/23 03:57:10;;;;;;;0.00;0.00;;;;;;;;;;5013283;28;20033;-88
2023/07/23 03:59:41;;;;;;;0.00;0.00;;;15.70;99.90;;;;;;5017840;28;20033;-88
2023/07/23 04:02:07;;;;;;;0.00;0.00;;;15.70;99.90;;;;;;5013199;28;20026;-88
2023/07/23 04:04:34;;;;;;;0.00;0.00;;;15.80;99.90;;;;;;5018051;28;20018;-87
2023/07/23 04:07:00;;;;;;;0.00;0.00;;;15.80;99.90;;;;;;5015861;28;20390;-86
2023/07/23 04:09:26;;;;;;;0.00;0.00;;;17.20;99.90;;;;;;5014568;28;20034;-86
2023/07/23 04:11:52;;;;;;;0.00;0.00;;;;;;;;;;5018039;28;20040;-86
2023/07/23 04:14:17;;;;;;;0.00;0.00;;;16.00;99.90;;;;;;5014720;28;20148;-86
2023/07/23 04:16:43;;;;;;;0.00;0.00;;;16.00;99.90;;;;;;5014365;28;20108;-87
2023/07/23 04:19:09;;;;;;;0.00;0.00;;;;;;;;;;5030575;28;20033;-87
2023/07/23 04:21:35;;;;;;;0.00;0.00;;;;;;;;;;5020270;28;20071;-86
2023/07/23 04:24:01;;;;;;;0.00;0.00;;;;;;;;;;5017403;28;20022;-86
2023/07/23 04:26:27;;;;;;;0.00;0.00;;;16.00;99.90;;;;;;5017316;28;20025;-88
2023/07/23 04:28:53;;;;;;;0.00;0.00;;;16.00;99.90;;;;;;5015759;28;20037;-87
2023/07/23 04:31:19;;;;;;;0.00;0.00;;;15.90;99.90;;;;;;5014925;28;20021;-86
2023/07/23 04:33:45;;;;;;;0.00;0.00;;;15.80;99.90;;;;;;5017129;28;20390;-85
2023/07/23 04:36:12;;;;;;;0.00;0.00;;;15.80;99.90;;;;;;5020235;28;20099;-86
2023/07/23 04:38:38;;;;;;;0.00;0.00;;;15.90;99.90;;;;;;5016459;28;20040;-83
2023/07/23 04:41:04;;;;;;;0.00;0.00;;;15.90;99.90;;;;;;5017778;28;20029;-86
2023/07/23 04:43:30;;;;;;;0.00;0.00;;;15.90;99.90;;;;;;5015076;28;20021;-86
2023/07/23 04:45:56;;;;;;;0.00;0.00;;;15.90;99.90;;;;;;5018273;28;20057;-86
2023/07/23 04:48:22;;;;;;;0.00;0.00;;;15.90;99.90;;;;;;5016926;28;20037;-85
2023/07/23 04:51:05;;;;;;;0.00;0.00;;;16.00;99.90;;;;;;5018227;28;20036;-86
2023/07/23 04:53:31;;;;;;;0.00;0.00;;;16.00;99.90;;;;;;5019515;28;20402;-88
2023/07/23 04:55:59;;;;;;;0.00;0.00;;;16.10;99.90;;;;;;5016626;28;20117;-86
2023/07/23 04:58:25;;;;;;;0.00;0.00;;;16.10;99.90;;;;;;5011014;28;20525;-86
2023/07/23 05:00:51;;;;;;;0.00;0.00;;;16.20;99.90;;;;;;4997942;28;20061;-87
2023/07/23 05:03:18;;;;;;;0.00;0.00;;;16.10;99.90;;;;;;5018123;28;20025;-86
2023/07/23 05:05:46;;;;;;;0.00;0.00;;;16.20;99.90;;;;;;5018607;28;20021;-87
2023/07/23 05:08:13;;;;;;;0.00;0.00;;;16.40;99.90;;;;;;5016686;28;20406;-85
2023/07/23 05:10:39;;;;;;;0.00;0.00;;;16.40;99.90;;;;;;5015390;28;20026;-86
2023/07/23 05:13:05;;;;;;;0.00;0.00;;;16.50;99.90;;;;;;5009796;28;20442;-87
2023/07/23 05:15:31;;;;;;;0.00;0.00;;;;;;;;;;5013090;28;20026;-86
2023/07/23 05:17:56;;;;;;;0.00;0.00;;;16.70;99.90;;;;;;5019256;28;20037;-85
2023/07/23 05:20:22;;;;;;;0.00;0.00;;;;;;;;;;5014412;28;20052;-85
2023/07/23 05:22:48;;;;;;;0.00;0.00;;;;;;;;;;5015063;28;20036;-86
2023/07/23 05:25:14;;;;;;;0.00;0.00;;;;;;;;;;5028226;28;20175;-87
2023/07/23 05:27:40;;;;;;;0.00;0.00;;;16.90;99.90;;;;;;5018378;28;20040;-86
2023/07/23 05:30:06;;;;;;;0.00;0.00;;;17.10;99.90;;;;;;5012348;28;20124;-87
2023/07/23 05:32:32;;;;;;;0.00;0.00;;;;;;;;;;5013892;28;20119;-88
2023/07/23 05:34:58;;;;;;;0.00;0.00;;;17.10;99.90;;;;;;5012916;28;20026;-87
2023/07/23 05:37:24;;;;;;;0.00;0.00;;;;;;;;;;5009692;28;20104;-86
2023/07/23 05:39:52;;;;;;;0.00;0.00;;;17.30;99.90;;;;;;5010719;28;20029;-87
2023/07/23 05:42:17;;;;;;;0.00;0.00;;;17.40;99.90;;;;;;5013966;28;20041;-86
2023/07/23 05:44:43;;;;;;;0.00;0.00;;;;;;;;;;5026992;28;20056;-87
2023/07/23 05:47:09;;;;;;;0.00;0.00;;;;;;;;;;5017153;28;20040;-87
2023/07/23 05:49:35;;;;;;;0.00;0.00;;;;;;;;;;5012688;28;20025;-87
2023/07/23 05:52:02;;;;;;;0.00;0.00;;;;;;;;;;5013918;28;20205;-87
2023/07/23 05:54:28;;;;;;;0.00;0.00;;;17.70;99.90;;;;;;5012803;28;20033;-85
2023/07/23 05:56:53;;;;;;;0.00;0.00;;;18.40;99.90;;;;;;5012618;28;20026;-85
2023/07/23 05:59:19;;;;;;;0.00;0.00;;;;;;;;;;5017144;28;20025;-86
2023/07/23 06:01:45;;;;;;;0.00;0.00;;;;;;;;;;5019284;28;20124;-88
2023/07/23 06:04:11;;;;;;;0.00;0.00;;;17.90;99.90;;;;;;5017596;28;20025;-87
2023/07/23 06:06:37;;;;;;;0.00;0.00;;;;;;;;;;5013094;28;20033;-86
2023/07/23 06:09:06;;;;;;;0.00;0.00;;;;;;;;;;5021567;28;20539;-88
2023/07/23 06:11:32;;;;;;;0.00;0.00;;;;;;;;;;5031106;28;20021;-87
2023/07/23 06:13:58;;;;;;;0.00;0.00;;;18.20;99.90;;;;;;5011005;28;20026;-86
2023/07/23 06:16:28;;;;;;;0.00;0.00;;;18.30;99.90;;;;;;5005277;28;20117;-87
2023/07/23 06:18:54;;;;;;;0.00;0.00;;;18.50;99.90;;;;;;5015150;28;20029;-87
2023/07/23 06:21:19;;;;;;;0.00;0.00;;;18.40;99.90;;;;;;5006159;28;20025;-87
2023/07/23 06:23:44;;;;;;;0.00;0.00;;;18.50;99.90;;;;;;5014258;28;20041;-88
2023/07/23 06:26:10;;;;;;;0.00;0.00;;;;;;;;;;5018340;28;20017;-87
2023/07/23 06:28:36;;;;;;;0.00;0.00;;;;;;;;;;5023068;28;20057;-87
2023/07/23 06:31:02;;;;;;;0.00;0.00;;;;;;;;;;5015963;28;20078;-88
2023/07/23 06:33:28;;;;;;;0.00;0.00;;;18.80;99.90;;;;;;5010736;28;20093;-88
2023/07/23 06:35:54;;;;;;;0.00;0.00;;;18.80;99.90;;;;;;5010609;28;20519;-86
2023/07/23 06:38:19;;;;;;;0.00;0.00;;;19.10;99.90;;;;;;5012411;28;20033;-88
2023/07/23 06:40:46;;;;;;;0.00;0.00;;;20.20;99.90;;;;;;4997870;28;20637;-87
2023/07/23 06:43:13;;;;;;;0.00;0.00;;;21.80;99.90;;;;;;5016270;28;20022;-87
2023/07/23 06:45:39;;;;;;;0.00;0.00;;;19.30;99.90;;;;;;5019350;28;20360;-87
2023/07/23 06:48:05;;;;;;;0.00;0.00;;;19.50;99.90;;;;;;5024708;28;20040;-88
2023/07/23 06:50:31;;;;;;;0.00;0.00;;;;;;;;;;5019716;28;20025;-87
2023/07/23 06:52:57;;;;;;;0.00;0.00;;;;;;;;;;5017917;28;20025;-86
2023/07/23 06:55:23;;;;;;;0.00;0.00;;;19.60;99.90;;;;;;5015932;28;20048;-88
2023/07/23 06:57:49;;;;;;;0.00;0.00;;;;;;;;;;5020016;28;20108;-88
2023/07/23 07:00:15;;;;;;;0.00;0.00;;;19.80;99.90;;;;;;5009981;28;20030;-87
2023/07/23 07:02:41;;;;;;;0.00;0.00;;;20.00;99.90;;;;;;5006575;28;20037;-87
2023/07/23 07:05:06;;;;;;;0.00;0.00;;;19.90;99.90;;;;;;5026507;28;20052;-85
2023/07/23 07:07:32;;;;;;;0.00;0.00;;;20.20;99.90;;;;;;5027417;28;20040;-85
2023/07/23 07:09:59;;;;;;;0.00;0.00;;;;;;;;;;5014573;28;20029;-87
2023/07/23 07:12:24;;;;;;;0.00;0.00;;;20.40;99.90;;;;;;5011760;28;20021;-88
2023/07/23 07:14:50;;;;;;;0.00;0.00;;;20.30;99.90;;;;;;5006896;28;20160;-86
2023/07/23 07:17:16;;;;;;;0.00;0.00;;;;;;;;;;5015943;28;20052;-86
2023/07/23 07:19:42;;;;;;;0.00;0.00;;;;;;;;;;5016299;28;20049;-87
2023/07/23 07:22:07;;;;;;;0.00;0.00;;;20.40;99.90;;;;;;5015047;28;20048;-87
2023/07/23 07:24:34;;;;;;;0.00;0.00;;;22.80;99.90;;;;;;5013195;28;20025;-88
2023/07/23 07:26:59;;;;;;;0.00;0.00;;;22.60;99.90;;;;;;5016531;28;20398;-85
2023/07/23 07:29:25;;;;;;;0.00;0.00;;;;;;;;;;5023082;28;20064;-87
2023/07/23 07:31:51;;;;;;;0.00;0.00;;;20.80;99.90;;;;;;5012472;28;20034;-86
2023/07/23 07:34:17;;;;;;;0.00;0.00;;;;;;;;;;5018174;28;20021;-88
2023/07/23 07:36:44;;;;;;;0.00;0.00;;;;;;;;;;5016786;28;20037;-87
2023/07/23 07:39:10;;;;;;;0.00;0.00;;;21.10;99.90;;;;;;5015723;28;20046;-88
2023/07/23 07:41:35;;;;;;;0.00;0.00;;;21.10;99.90;;;;;;5023564;28;20033;-88
2023/07/23 07:44:01;;;;;;;0.00;0.00;;;21.20;99.90;;;;;;5022994;28;20115;-89
2023/07/23 07:46:26;;;;;;;0.00;0.00;;;22.50;99.90;;;;;;5019309;28;20021;-87
2023/07/23 07:48:52;;;;;;;0.00;0.00;;;;;;;;;;5014155;28;20052;-86
2023/07/23 07:51:18;;;;;;;0.00;0.00;;;21.50;99.90;;;;;;5017185;28;20425;-88
2023/07/23 07:53:43;;;;;;;0.00;0.00;;;22.00;99.90;;;;;;5011119;28;20124;-87
2023/07/23 07:56:14;;;;;;;0.00;0.00;;;22.30;99.90;;;;;;5026280;28;20047;-88
2023/07/23 08:34:48;;;;;;;0.00;0.00;;;22.50;99.90;;;;;;5064318;28;20245;-90
2023/07/23 08:37:14;;;;;;;0.00;0.00;;;22.70;99.90;;;;;;5039739;28;20491;-91
2023/07/23 08:39:40;;;;;;;0.00;0.00;;;22.80;99.90;;;;;;5038893;28;20060;-90
2023/07/23 08:42:39;;;;;;;0.00;0.00;;;23.00;99.90;;;;;;5043436;28;20059;-90
2023/07/23 08:45:05;;;;;;;;;;;23.10;99.90;;;;;;5062943;28;20514;-91
2023/07/23 08:47:38;;;;;;;0.00;0.00;;;23.20;99.70;;;;;;5042575;28;19904;-91
2023/07/23 08:50:03;;;;;;;0.00;0.00;;;23.20;99.90;;;;;;5039541;28;20033;-90
2023/07/23 08:52:31;;;;;;;0.00;0.00;;;23.20;99.60;;;;;;5044678;28;20024;-91
2023/07/23 08:54:57;;;;;;;0.00;0.00;;;;;;;;;;5052340;28;20106;-91
2023/07/23 08:57:23;;;;;;;0.00;0.00;;;;;;;;;;5036472;28;20025;-91
2023/07/23 08:59:50;;;;;;;0.00;0.00;;;23.70;99.70;;;;;;5039221;28;20033;-90
2023/07/23 09:02:16;;;;;;;0.00;0.00;;;23.70;99.90;;;;;;5061434;28;20380;-92
2023/07/23 09:04:42;;;;;;;0.00;0.00;;;;;;;;;;5057499;28;20027;-89
2023/07/23 09:07:10;;;;;;;0.00;0.00;;;23.90;99.10;;;;;;5042436;28;20032;-88
2023/07/23 09:09:36;;;;;;;0.00;0.00;;;26.20;99.90;;;;;;5043961;28;20029;-90
2023/07/23 09:12:03;;;;;;;0.00;0.00;;;;;;;;;;5044009;28;20097;-90
2023/07/23 09:14:29;;;;;;;0.00;0.00;;;23.70;98.00;;;;;;5039344;28;20120;-91
2023/07/23 09:16:55;;;;;;;0.00;0.00;;;;;;;;;;5034210;28;20096;-89
2023/07/23 09:19:23;;;;;;;0.00;0.00;;;23.70;97.70;;;;;;5052746;28;20110;-90
2023/07/23 09:21:49;;;;;;;0.00;0.00;;;;;;;;;;5039395;28;20083;-90
2023/07/23 09:24:16;;;;;;;0.00;0.00;;;23.80;97.60;;;;;;5045592;28;20108;-90
2023/07/23 09:26:42;;;;;;;0.00;0.00;;;;;;;;;;5041674;28;20067;-90
2023/07/23 09:29:11;;;;;;;0.00;0.00;;;23.60;97.30;;;;;;5046556;28;20028;-91
2023/07/23 09:31:41;;;;;;;0.00;0.00;;;23.70;96.90;;;;;;5057444;28;20039;-92
2023/07/23 09:34:07;;;;;;;0.00;0.00;;;;;;;;;;5036234;28;20425;-90
2023/07/23 09:36:33;;;;;;;0.00;0.00;;;23.70;97.00;;;;;;5055838;28;20032;-90
2023/07/23 09:39:03;;;;;;;0.00;0.00;;;23.70;96.80;;;;;;5051268;28;20442;-90
2023/07/23 09:41:35;;;;;;;0.00;0.00;;;23.90;96.60;;;;;;5041606;28;20028;-90
2023/07/23 09:44:11;;;;;;;0.00;0.00;;;24.30;97.10;;;;;;5041198;28;20487;-89
2023/07/23 09:46:39;;;;;;;0.00;0.00;;;23.60;96.50;;;;;;5046034;28;20032;-90
2023/07/23 09:49:05;;;;;;;0.00;0.00;;;23.80;97.60;;;;;;5044861;28;20020;-91
2023/07/23 09:51:36;;;;;;;0.00;0.00;;;23.80;97.00;;;;;;5066923;28;20025;-88
2023/07/23 09:54:02;;;;;;;0.00;0.00;;;;;;;;;;5039062;28;20976;-90
2023/07/23 09:56:29;;;;;;;0.00;0.00;;;;;;;;;;5036787;28;20078;-90
2023/07/23 09:58:56;;;;;;;0.00;0.00;;;23.90;97.10;;;;;;5045541;28;20039;-90
2023/07/23 10:01:22;;;;;;;0.00;0.00;;;;;;;;;;5062260;28;20533;-90
2023/07/23 10:03:49;;;;;;;0.00;0.00;;;23.90;96.40;;;;;;5040187;28;20021;-91
2023/07/23 10:06:20;;;;;;;0.00;0.00;;;23.50;96.40;;;;;;5041443;28;20058;-91
2023/07/23 10:08:46;;;;;;;0.00;0.00;;;;;;;;;;5058199;28;20035;-91
2023/07/23 10:11:13;;;;;;;0.00;0.00;;;23.20;97.70;;;;;;5064336;28;20028;-91
2023/07/23 10:13:40;;;;;;;0.00;0.00;;;23.00;98.60;;;;;;5039540;28;20155;-90
2023/07/23 10:16:27;;;;;;;0.00;0.00;;;23.00;98.80;;;;;;5059553;28;20036;-89
2023/07/23 10:18:56;;;;;;;0.00;0.00;;;23.20;99.20;;;;;;5059018;28;20620;-90
2023/07/23 10:21:22;;;;;;;0.00;0.00;;;23.30;99.30;;;;;;5062168;28;20091;-90
2023/07/23 10:23:56;;;;;;;0.00;0.00;;;23.30;99.50;;;;;;5054358;28;20033;-90
2023/07/23 10:26:31;;;;;;;0.00;0.00;;;23.20;98.80;;;;;;5043438;28;20032;-90
2023/07/23 10:29:07;;;;;;;0.00;0.00;;;23.20;99.10;;;;;;5039901;28;20078;-89
2023/07/23 10:31:33;;;;;;;0.00;0.00;;;22.90;99.90;;;;;;5057101;28;20029;-90
2023/07/23 10:33:59;;;;;;;0.00;0.00;;;22.70;99.90;;;;;;5061720;28;20042;-91
2023/07/23 10:36:24;;;;;;;0.00;0.00;;;22.60;99.90;;;;;;5043018;28;20029;-90
2023/07/23 10:39:18;;;;;;;0.00;0.00;;;23.70;99.90;;;;;;5040968;28;20032;-91
2023/07/23 10:41:53;;;;;;;0.00;0.00;;;22.40;99.90;;;;;;5040815;28;20446;-91
2023/07/23 10:44:28;;;;;;;0.00;0.00;;;22.40;99.90;;;;;;5034258;28;20478;-90
2023/07/23 10:46:57;;;;;;;0.00;0.00;;;22.80;99.90;;;;;;5056066;28;20040;-91
2023/07/23 10:49:27;;;;;;;0.00;0.00;;;22.50;99.90;;;;;;5044383;28;20116;-91
2023/07/23 10:51:53;;;;;;;;;;;22.60;99.90;;;;;;5061465;28;20024;-91
2023/07/23 10:54:20;;;;;;;0.00;0.00;;;23.00;99.90;;;;;;5034711;28;20436;-91
2023/07/23 10:56:48;;;;;;;0.00;0.00;;;24.30;99.90;;;;;;5040092;28;20081;-92
2023/07/23 10:59:16;;;;;;;0.00;0.00;;;24.50;99.90;;;;;;5041604;28;20038;-91
2023/07/23 11:01:44;;;;;;;0.00;0.00;;;23.50;99.90;;;;;;5041794;28;20479;-92
2023/07/23 11:04:15;;;;;;;0.00;0.00;;;23.70;99.90;;;;;;5058622;28;20499;-91
2023/07/23 11:07:01;;;;;;;0.00;0.00;;;23.70;99.90;;;;;;5056587;28;20033;-90
2023/07/23 11:09:28;;;;;;;0.00;0.00;;;24.00;99.90;;;;;;5034259;28;20499;-92
2023/07/23 11:11:55;;;;;;;0.00;0.00;;;24.60;99.90;;;;;;5036881;28;20025;-88
2023/07/23 11:14:29;;;;;;;0.00;0.00;;;24.30;99.90;;;;;;5039409;28;20024;-89
2023/07/23 11:16:57;;;;;;;0.00;0.00;;;24.20;99.90;;;;;;5041266;28;20585;-89
2023/07/23 11:19:24;;;;;;;0.00;0.00;;;24.40;99.90;;;;;;5037698;28;20029;-92
2023/07/23 11:21:56;;;;;;;0.00;0.00;;;24.60;99.70;;;;;;5063753;28;20103;-91
2023/07/23 11:24:23;;;;;;;0.00;0.00;;;24.60;99.00;;;;;;5062740;28;20451;-90
2023/07/23 11:26:49;;;;;;;0.00;0.00;;;24.50;99.20;;;;;;5043422;28;20032;-91
2023/07/23 11:29:16;;;;;;;0.00;0.00;;;24.90;98.70;;;;;;5045701;28;20082;-90
2023/07/23 11:31:42;;;;;;;0.00;0.00;;;;;;;;;;5041720;28;20028;-92
2023/07/23 11:34:08;;;;;;;0.00;0.00;;;;;;;;;;5056986;28;20040;-91
2023/07/23 11:36:36;;;;;;;0.00;0.00;;;24.30;98.60;;;;;;5044615;28;20104;-92
2023/07/23 11:39:02;;;;;;;0.00;0.00;;;24.40;98.20;;;;;;5037583;28;20159;-91
2023/07/23 11:41:32;;;;;;;0.00;0.00;;;24.50;97.70;;;;;;5060296;28;20040;-91
2023/07/23 11:44:03;;;;;;;0.00;0.00;;;24.60;98.80;;;;;;5055882;28;20131;-92
2023/07/23 11:46:29;;;;;;;0.00;0.00;;;;;;;;;;5042371;28;20032;-91
2023/07/23 11:48:55;;;;;;;0.00;0.00;;;;;;;;;;5039675;28;20029;-90
2023/07/23 11:51:22;;;;;;;0.00;0.00;;;24.90;97.00;;;;;;5058698;28;20479;-92
2023/07/23 11:53:51;;;;;;;0.00;0.00;;;24.80;97.20;;;;;;5042409;28;20025;-91
2023/07/23 11:56:18;;;;;;;0.00;0.00;;;24.80;97.50;;;;;;5057297;28;20441;-91
2023/07/23 11:58:43;;;;;;;0.00;0.00;;;24.80;97.20;;;;;;5047394;28;20036;-91
2023/07/23 12:01:10;;;;;;;0.00;0.00;;;;;;;;;;5058277;28;20033;-91
2023/07/23 12:03:43;;;;;;;0.00;0.00;;;24.90;97.70;;;;;;5062352;28;20029;-92
2023/07/23 12:06:11;;;;;;;0.00;0.00;;;25.10;97.60;;;;;;5050234;28;20029;-91
2023/07/23 12:08:40;;;;;;;0.00;0.00;;;25.40;98.00;;;;;;5058857;28;20037;-91
2023/07/23 12:11:14;;;;;;;0.00;0.00;;;25.40;98.20;;;;;;5041997;28;20479;-89
2023/07/23 12:13:44;;;;;;;0.00;0.00;;;25.80;98.40;;;;;;5046160;28;20029;-89
2023/07/23 12:16:13;;;;;;;;;;;24.60;98.90;;;;;;5049994;28;20029;-91
2023/07/23 12:18:46;;;;;;;0.00;0.00;;;24.80;99.20;;;;;;5051635;28;20387;-90
2023/07/23 12:21:19;;;;;;;0.00;0.00;;;25.50;97.90;;;;;;5055977;28;20036;-91
2023/07/23 12:23:44;;;;;;;0.00;0.00;;;26.10;98.90;;;;;;5048849;28;20021;-91
2023/07/23 12:26:10;;;;;;;0.00;0.00;;;;;;;;;;5044324;28;20013;-91
2023/07/23 12:28:36;;;;;;;0.00;0.00;;;;;;;;;;5044922;28;20029;-91
2023/07/23 12:31:02;;;;;;;0.00;0.00;;;;;;;;;;5039498;28;20032;-91
2023/07/23 12:33:28;;;;;;;0.00;0.00;;;;;;;;;;5041869;28;20562;-91
2023/07/23 12:35:54;;;;;;;0.00;0.00;;;24.70;98.00;;;;;;5055562;28;20053;-91
2023/07/23 12:38:19;;;;;;;0.00;0.00;;;24.60;98.10;;;;;;5044025;28;20399;-90
2023/07/23 12:40:45;;;;;;;0.00;0.00;;;;;;;;;;5049641;28;20425;-90
2023/07/23 12:43:11;;;;;;;0.00;0.00;;;;;;;;;;5042171;28;20021;-91
2023/07/23 12:45:37;;;;;;;0.00;0.00;;;;;;;;;;5051344;28;20128;-91
2023/07/23 12:48:03;;;;;;;0.00;0.00;;;24.50;98.60;;;;;;5043712;28;20037;-92
2023/07/23 12:50:29;;;;;;;0.00;0.00;;;;;;;;;;5038093;28;20032;-92
2023/07/23 12:52:55;;;;;;;0.00;0.00;;;;;;;;;;5034311;28;20033;-91
2023/07/23 12:55:21;;;;;;;0.00;0.00;;;;;;;;;;5056553;28;20023;-91
2023/07/23 12:57:47;;;;;;;0.00;0.00;;;;;;;;;;5055143;28;20104;-91
2023/07/23 13:00:12;;;;;;;0.00;0.00;;;24.20;99.70;;;;;;5038513;28;20017;-91
2023/07/23 13:02:39;;;;;;;0.00;0.00;;;;;;;;;;5035939;28;20082;-88
2023/07/23 13:05:04;;;;;;;0.00;0.00;;;24.20;98.70;;;;;;5041042;28;20048;-91
2023/07/23 13:07:30;;;;;;;0.00;0.00;;;;;;;;;;5040349;28;20025;-90
2023/07/23 13:09:56;;;;;;;0.00;0.00;;;;;;;;;;5035777;28;20032;-91
2023/07/23 13:12:22;;;;;;;0.00;0.00;;;23.70;99.60;;;;;;5048193;28;20025;-90
2023/07/23 13:14:48;;;;;;;0.00;0.00;;;;;;;;;;5035946;28;20103;-90
2023/07/23 13:17:13;;;;;;;0.00;0.00;;;23.50;99.90;;;;;;5062219;28;20084;-90
2023/07/23 13:19:39;;;;;;;0.00;0.00;;;;;;;;;;5038833;28;20025;-91
2023/07/23 13:22:05;;;;;;;0.00;0.00;;;23.50;99.90;;;;;;5033082;28;20495;-92
2023/07/23 13:24:30;;;;;;;0.00;0.00;;;23.70;99.90;;;;;;5040567;28;20025;-91
2023/07/23 13:26:56;;;;;;;0.00;0.00;;;;;;;;;;5052729;28;20396;-91
2023/07/23 13:29:22;;;;;;;0.00;0.00;;;24.30;99.90;;;;;;5038469;28;20032;-91
2023/07/23 13:31:47;;;;;;;0.00;0.00;;;24.20;99.90;;;;;;5042780;28;20028;-91
2023/07/23 13:34:13;;;;;;;0.00;0.00;;;;;;;;;;5051690;28;20039;-91
2023/07/23 13:36:39;;;;;;;0.00;0.00;;;24.20;99.90;;;;;;5038702;28;20483;-91
2023/07/23 13:39:04;;;;;;;0.00;0.00;;;24.00;99.90;;;;;;5040322;28;20056;-91
2023/07/23 13:41:30;;;;;;;0.00;0.00;;;;;;;;;;5038307;28;20027;-91
2023/07/23 13:43:56;;;;;;;0.00;0.00;;;;;;;;;;5035467;28;20013;-89
2023/07/23 13:46:22;;;;;;;0.00;0.00;;;;;;;;;;5039571;28;20090;-91
2023/07/23 13:48:48;;;;;;;0.00;0.00;;;;;;;;;;5054365;28;20036;-91
2023/07/23 13:51:14;;;;;;;0.00;0.00;;;23.60;99.90;;;;;;5044636;28;20024;-91
2023/07/23 13:53:40;;;;;;;0.00;0.00;;;;;;;;;;5040451;28;20029;-90
2023/07/23 13:56:06;;;;;;;0.00;0.00;;;23.50;99.90;;;;;;5055619;28;20029;-89